createdAt,value
2022-10-08T00:00:00.027Z,16.00
2022-10-08T00:02:46.176Z,16.00
2022-10-08T00:05:31.824Z,16.10
2022-10-08T00:08:17.996Z,16.10
2022-10-08T00:11:06.904Z,16.10
2022-10-08T00:13:55.093Z,16.10
2022-10-08T00:16:41.880Z,16.10
2022-10-08T00:19:28.248Z,16.10
2022-10-08T00:22:14.789Z,16.10
2022-10-08T00:25:00.493Z,16.00
2022-10-08T00:27:46.118Z,16.00
2022-10-08T00:30:39.339Z,16.00
2022-10-08T00:33:24.769Z,15.90
2022-10-08T00:36:12.886Z,15.90
2022-10-08T00:39:03.702Z,15.90
2022-10-08T00:41:52.846Z,15.90
2022-10-08T00:44:51.670Z,15.90
2022-10-08T00:47:45.488Z,15.90
2022-10-08T00:50:35.950Z,16.00
2022-10-08T00:53:21.826Z,16.00
2022-10-08T00:56:11.882Z,16.10
2022-10-08T00:58:58.787Z,16.20
2022-10-08T01:01:45.864Z,16.20
2022-10-08T01:04:32.007Z,16.10
2022-10-08T01:07:22.792Z,16.10
2022-10-08T01:10:21.695Z,16.00
2022-10-08T01:13:21.329Z,15.90
2022-10-08T01:16:36.712Z,15.80
2022-10-08T01:19:46.727Z,15.80
2022-10-08T01:22:48.985Z,15.70
2022-10-08T01:25:40.926Z,15.60
2022-10-08T01:28:53.072Z,15.50
2022-10-08T01:31:48.256Z,15.50
2022-10-08T01:34:59.195Z,15.50
2022-10-08T01:37:46.601Z,15.50
2022-10-08T01:40:36.329Z,15.50
2022-10-08T01:43:25.551Z,15.50
2022-10-08T01:46:19.503Z,15.50
2022-10-08T01:49:11.546Z,15.50
2022-10-08T01:52:04.266Z,15.40
2022-10-08T01:54:54.974Z,15.40
2022-10-08T01:57:45.460Z,15.30
2022-10-08T02:00:35.700Z,15.40
2022-10-08T02:03:22.776Z,15.40
2022-10-08T02:06:11.053Z,15.40
2022-10-08T02:08:56.709Z,15.40
2022-10-08T02:11:43.269Z,15.40
2022-10-08T02:14:30.843Z,15.40
2022-10-08T02:17:41.720Z,15.30
2022-10-08T02:20:34.059Z,15.30
2022-10-08T02:23:22.231Z,15.30
2022-10-08T02:26:15.338Z,15.30
2022-10-08T02:29:06.820Z,15.20
2022-10-08T02:32:05.474Z,15.20
2022-10-08T02:35:01.519Z,15.10
2022-10-08T02:38:02.022Z,15.10
2022-10-08T02:40:52.763Z,15.10
2022-10-08T02:43:49.783Z,15.10
2022-10-08T02:46:40.645Z,15.10
2022-10-08T02:49:37.964Z,15.10
2022-10-08T02:52:28.001Z,15.10
2022-10-08T02:55:23.221Z,15.10
2022-10-08T02:58:12.560Z,15.00
2022-10-08T03:01:07.761Z,15.00
2022-10-08T03:04:04.406Z,15.00
2022-10-08T03:06:52.923Z,15.00
2022-10-08T03:09:43.346Z,15.00
2022-10-08T03:12:30.308Z,15.00
2022-10-08T03:15:15.899Z,15.00
2022-10-08T03:18:06.531Z,15.00
2022-10-08T03:20:55.851Z,14.90
2022-10-08T03:23:43.171Z,14.90
2022-10-08T03:26:29.158Z,14.90
2022-10-08T03:29:14.989Z,14.90
2022-10-08T03:32:00.688Z,15.00
2022-10-08T03:34:47.123Z,14.90
2022-10-08T03:37:33.693Z,14.90
2022-10-08T03:40:20.225Z,14.90
2022-10-08T03:43:05.884Z,14.80
2022-10-08T03:45:55.377Z,14.80
2022-10-08T03:48:41.692Z,14.80
2022-10-08T03:51:27.559Z,14.90
2022-10-08T03:54:13.335Z,14.90
2022-10-08T03:57:00.575Z,14.80
2022-10-08T03:59:48.294Z,14.80
2022-10-08T04:02:35.042Z,14.80
2022-10-08T04:05:20.856Z,14.80
2022-10-08T04:08:07.364Z,14.80
2022-10-08T04:10:53.225Z,14.80
2022-10-08T04:13:40.591Z,14.80
2022-10-08T04:16:26.385Z,14.80
2022-10-08T04:19:14.828Z,14.80
2022-10-08T04:22:00.559Z,14.90
2022-10-08T04:24:47.141Z,14.90
2022-10-08T04:27:34.484Z,14.90
2022-10-08T04:30:20.457Z,14.90
2022-10-08T04:33:07.423Z,14.90
2022-10-08T04:35:59.844Z,14.90
2022-10-08T04:38:47.440Z,14.90
2022-10-08T04:41:33.669Z,14.90
2022-10-08T04:44:20.205Z,14.90
2022-10-08T04:47:07.359Z,14.80
2022-10-08T04:49:53.355Z,14.80
2022-10-08T04:52:39.410Z,14.80
2022-10-08T04:55:25.430Z,14.80
2022-10-08T04:58:11.775Z,14.90
2022-10-08T05:00:57.582Z,14.90
2022-10-08T05:03:48.149Z,14.90
2022-10-08T05:06:33.733Z,14.90
2022-10-08T05:09:19.432Z,14.90
2022-10-08T05:12:04.768Z,14.90
2022-10-08T05:14:50.563Z,14.90
2022-10-08T05:17:36.355Z,14.90
2022-10-08T05:20:23.019Z,14.90
2022-10-08T05:23:10.266Z,14.90
2022-10-08T05:25:56.070Z,14.90
2022-10-08T05:28:42.261Z,15.00
2022-10-08T05:31:30.066Z,15.00
2022-10-08T05:34:16.398Z,15.00
2022-10-08T05:37:03.778Z,15.10
2022-10-08T05:39:51.463Z,15.10
2022-10-08T05:42:37.930Z,15.00
2022-10-08T05:45:25.043Z,15.10
2022-10-08T05:48:13.831Z,15.00
2022-10-08T05:51:15.178Z,15.10
2022-10-08T05:54:01.491Z,15.10
2022-10-08T05:56:49.076Z,15.10
2022-10-08T05:59:36.454Z,15.10
2022-10-08T06:02:22.268Z,15.20
2022-10-08T06:05:08.113Z,15.20
2022-10-08T06:07:57.380Z,15.20
2022-10-08T06:10:53.730Z,15.20
2022-10-08T06:13:39.368Z,15.20
2022-10-08T06:16:26.055Z,15.20
2022-10-08T06:19:11.936Z,15.20
2022-10-08T06:21:58.452Z,15.20
2022-10-08T06:24:44.162Z,15.20
2022-10-08T06:27:29.697Z,15.20
2022-10-08T06:30:15.220Z,15.20
2022-10-08T06:33:00.750Z,15.20
2022-10-08T06:35:46.786Z,15.20
2022-10-08T06:38:35.898Z,15.20
2022-10-08T06:41:22.621Z,15.20
2022-10-08T06:44:11.738Z,15.20
2022-10-08T06:46:57.129Z,15.20
2022-10-08T06:49:42.618Z,15.20
2022-10-08T06:52:28.279Z,15.20
2022-10-08T06:55:14.059Z,15.20
2022-10-08T06:58:00.557Z,15.30
2022-10-08T07:00:46.340Z,15.30
2022-10-08T07:03:32.337Z,15.30
2022-10-08T07:06:18.494Z,15.40
2022-10-08T07:09:06.717Z,15.50
2022-10-08T07:11:52.284Z,15.60
2022-10-08T07:14:37.552Z,15.60
2022-10-08T07:17:25.845Z,15.70
2022-10-08T07:20:11.958Z,15.80
2022-10-08T07:22:57.544Z,15.90
2022-10-08T07:25:43.309Z,16.00
2022-10-08T07:28:32.662Z,16.10
2022-10-08T07:31:23.963Z,16.10
2022-10-08T07:34:13.385Z,16.10
2022-10-08T07:36:59.230Z,16.20
2022-10-08T07:39:44.883Z,16.20
2022-10-08T07:42:31.700Z,16.30
2022-10-08T07:45:17.892Z,16.30
2022-10-08T07:48:03.741Z,16.40
2022-10-08T07:50:49.524Z,16.40
2022-10-08T07:53:36.567Z,16.40
2022-10-08T07:56:22.886Z,16.40
2022-10-08T07:59:09.028Z,16.50
2022-10-08T08:01:54.936Z,16.50
2022-10-08T08:04:40.425Z,16.60
2022-10-08T08:07:26.101Z,16.70
2022-10-08T08:10:11.618Z,16.80
2022-10-08T08:12:57.735Z,16.80
2022-10-08T08:15:43.288Z,16.80
2022-10-08T08:18:30.992Z,16.90
2022-10-08T08:21:19.732Z,17.00
2022-10-08T08:24:10.717Z,16.90
2022-10-08T08:26:57.771Z,16.90
2022-10-08T08:29:43.550Z,16.80
2022-10-08T08:32:28.974Z,16.80
2022-10-08T08:35:14.562Z,16.90
2022-10-08T08:38:00.403Z,17.00
2022-10-08T08:40:46.002Z,17.00
2022-10-08T08:43:31.865Z,17.00
2022-10-08T08:46:21.039Z,17.10
2022-10-08T08:49:19.958Z,17.10
2022-10-08T08:52:07.356Z,17.00
2022-10-08T08:54:55.049Z,17.00
2022-10-08T08:57:54.719Z,16.80
2022-10-08T09:00:44.962Z,17.00
2022-10-08T09:03:41.060Z,17.20
2022-10-08T09:06:28.215Z,17.30
2022-10-08T09:09:39.421Z,17.40
2022-10-08T09:12:41.523Z,17.40
2022-10-08T09:15:33.916Z,17.40
2022-10-08T09:18:19.475Z,17.10
2022-10-08T09:21:05.669Z,17.00
2022-10-08T09:23:51.081Z,16.90
2022-10-08T09:26:36.775Z,16.80
2022-10-08T09:29:33.928Z,16.70
2022-10-08T09:32:21.840Z,17.00
2022-10-08T09:35:10.247Z,17.30
2022-10-08T09:37:56.722Z,17.30
2022-10-08T09:41:16.902Z,17.40
2022-10-08T09:44:13.258Z,17.30
2022-10-08T09:47:06.404Z,17.50
2022-10-08T09:50:21.383Z,17.60
2022-10-08T09:53:07.398Z,17.90
2022-10-08T09:56:02.692Z,18.00
2022-10-08T09:58:53.563Z,18.20
2022-10-08T10:01:46.404Z,18.30
2022-10-08T10:04:36.236Z,18.50
2022-10-08T10:07:23.170Z,18.70
2022-10-08T10:10:40.359Z,18.80
2022-10-08T10:13:38.814Z,19.20
2022-10-08T10:16:35.449Z,19.40
2022-10-08T10:19:28.208Z,19.60
2022-10-08T10:22:28.222Z,19.90
2022-10-08T10:25:23.076Z,20.10
2022-10-08T10:28:14.671Z,20.30
2022-10-08T10:31:19.745Z,20.30
2022-10-08T10:34:25.855Z,20.20
2022-10-08T10:37:19.131Z,20.20
2022-10-08T10:40:23.315Z,20.20
2022-10-08T10:43:34.112Z,20.20
2022-10-08T10:46:25.605Z,20.30
2022-10-08T10:49:16.833Z,20.30
2022-10-08T10:52:18.589Z,20.50
2022-10-08T10:55:25.424Z,20.80
2022-10-08T10:58:36.740Z,20.90
2022-10-08T11:01:30.530Z,21.10
2022-10-08T11:04:34.489Z,21.30
2022-10-08T11:07:32.535Z,21.30
2022-10-08T11:10:18.443Z,21.40
2022-10-08T11:13:41.608Z,21.80
2022-10-08T11:16:46.070Z,22.30
2022-10-08T11:19:41.895Z,21.60
2022-10-08T11:22:44.007Z,21.80
2022-10-08T11:26:10.757Z,22.10
2022-10-08T11:29:07.218Z,22.70
2022-10-08T11:31:53.348Z,22.60
2022-10-08T11:34:42.360Z,22.30
2022-10-08T11:37:48.414Z,21.70
2022-10-08T11:40:40.749Z,21.80
2022-10-08T11:43:44.650Z,22.20
2022-10-08T11:46:36.950Z,22.30
2022-10-08T11:49:22.963Z,21.90
2022-10-08T11:52:15.841Z,21.60
2022-10-08T11:55:02.206Z,21.40
2022-10-08T11:58:07.568Z,21.20
2022-10-08T12:01:03.134Z,21.60
2022-10-08T12:04:21.063Z,24.00
2022-10-08T12:07:21.267Z,27.00
2022-10-08T12:10:06.858Z,28.40
2022-10-08T12:12:53.547Z,27.40
2022-10-08T12:15:40.363Z,26.70
2022-10-08T12:18:26.620Z,25.70
2022-10-08T12:21:20.394Z,24.70
2022-10-08T12:24:50.342Z,24.60
2022-10-08T12:27:38.135Z,23.40
2022-10-08T12:30:47.719Z,22.40
2022-10-08T12:33:33.311Z,23.00
2022-10-08T12:36:43.978Z,23.50
2022-10-08T12:39:48.437Z,23.60
2022-10-08T12:42:38.289Z,23.20
2022-10-08T12:45:34.270Z,22.90
2022-10-08T12:48:35.132Z,22.30
2022-10-08T12:51:46.732Z,21.80
2022-10-08T12:54:33.315Z,21.70
2022-10-08T12:57:33.827Z,21.60
2022-10-08T13:00:23.818Z,21.50
2022-10-08T13:03:15.337Z,21.30
2022-10-08T13:06:25.011Z,21.30
2022-10-08T13:09:12.517Z,21.50
2022-10-08T13:12:03.562Z,21.60
2022-10-08T13:14:59.974Z,21.70
2022-10-08T13:17:45.971Z,21.70
2022-10-08T13:20:31.699Z,21.60
2022-10-08T13:23:25.989Z,21.60
2022-10-08T13:26:49.693Z,21.40
2022-10-08T13:29:37.216Z,21.10
2022-10-08T13:32:26.381Z,20.90
2022-10-08T13:35:23.802Z,20.90
2022-10-08T13:38:18.413Z,21.00
2022-10-08T13:41:06.306Z,21.10
2022-10-08T13:43:51.985Z,20.90
2022-10-08T13:46:37.612Z,20.80
2022-10-08T13:49:28.633Z,21.10
2022-10-08T13:52:21.386Z,21.50
2022-10-08T13:55:15.999Z,21.70
2022-10-08T13:58:03.518Z,21.70
2022-10-08T14:00:49.509Z,21.60
2022-10-08T14:03:35.200Z,21.40
2022-10-08T14:06:20.572Z,20.50
2022-10-08T14:09:08.541Z,20.00
2022-10-08T14:11:56.879Z,20.10
2022-10-08T14:14:42.498Z,20.40
2022-10-08T14:17:28.072Z,20.70
2022-10-08T14:20:13.595Z,21.00
2022-10-08T14:22:59.067Z,21.20
2022-10-08T14:25:44.695Z,21.40
2022-10-08T14:28:30.191Z,21.30
2022-10-08T14:31:15.977Z,21.20
2022-10-08T14:34:02.124Z,21.00
2022-10-08T14:36:47.963Z,20.90
2022-10-08T14:39:33.645Z,20.90
2022-10-08T14:42:19.100Z,20.80
2022-10-08T14:45:05.224Z,20.90
2022-10-08T14:47:50.893Z,20.90
2022-10-08T14:50:36.322Z,20.70
2022-10-08T14:53:21.920Z,20.40
2022-10-08T14:56:12.361Z,20.10
2022-10-08T14:58:58.391Z,19.80
2022-10-08T15:01:43.880Z,19.60
2022-10-08T15:04:29.378Z,19.70
2022-10-08T15:07:14.938Z,19.30
2022-10-08T15:10:00.456Z,19.30
2022-10-08T15:12:46.465Z,19.30
2022-10-08T15:15:32.083Z,19.30
2022-10-08T15:18:17.634Z,19.10
2022-10-08T15:21:03.229Z,18.70
2022-10-08T15:23:48.536Z,18.60
2022-10-08T15:26:34.732Z,18.30
2022-10-08T15:29:20.070Z,18.40
2022-10-08T15:32:05.702Z,18.60
2022-10-08T15:34:51.113Z,18.60
2022-10-08T15:37:36.676Z,18.70
2022-10-08T15:40:22.180Z,18.70
2022-10-08T15:43:07.720Z,18.60
2022-10-08T15:45:53.377Z,18.60
2022-10-08T15:48:38.964Z,18.50
2022-10-08T15:51:25.197Z,18.50
2022-10-08T15:54:10.948Z,18.40
2022-10-08T15:56:56.516Z,18.40
2022-10-08T15:59:42.369Z,18.30
2022-10-08T16:02:27.808Z,18.30
2022-10-08T16:05:14.107Z,18.20
2022-10-08T16:07:59.318Z,18.20
2022-10-08T16:10:45.008Z,18.10
2022-10-08T16:13:30.703Z,18.00
2022-10-08T16:16:18.114Z,18.00
2022-10-08T16:19:09.413Z,17.90
2022-10-08T16:21:57.413Z,17.80
2022-10-08T16:24:42.954Z,17.70
2022-10-08T16:27:28.508Z,17.60
2022-10-08T16:30:14.120Z,17.60
2022-10-08T16:32:59.557Z,17.50
2022-10-08T16:35:45.057Z,17.50
2022-10-08T16:38:31.153Z,17.40
2022-10-08T16:41:23.029Z,17.30
2022-10-08T16:44:12.856Z,17.30
2022-10-08T16:46:58.686Z,17.10
2022-10-08T16:49:43.981Z,17.00
2022-10-08T16:52:29.531Z,16.90
2022-10-08T16:55:15.097Z,16.70
2022-10-08T16:58:00.736Z,16.70
2022-10-08T17:00:46.319Z,16.60
2022-10-08T17:03:31.972Z,16.50
2022-10-08T17:06:18.812Z,16.40
2022-10-08T17:09:05.749Z,16.30
2022-10-08T17:11:51.956Z,16.30
2022-10-08T17:14:37.948Z,16.30
2022-10-08T17:17:24.796Z,16.20
2022-10-08T17:20:11.783Z,16.10
2022-10-08T17:22:57.149Z,16.00
2022-10-08T17:25:43.318Z,16.00
2022-10-08T17:28:31.471Z,16.00
2022-10-08T17:31:23.394Z,16.10
2022-10-08T17:34:10.025Z,16.10
2022-10-08T17:36:55.632Z,15.80
2022-10-08T17:39:41.154Z,15.60
2022-10-08T17:42:26.724Z,15.30
2022-10-08T17:45:12.316Z,15.10
2022-10-08T17:47:57.735Z,15.10
2022-10-08T17:50:43.382Z,15.20
2022-10-08T17:53:29.875Z,15.20
2022-10-08T17:56:15.525Z,15.20
2022-10-08T17:59:01.142Z,15.20
2022-10-08T18:01:46.934Z,15.10
2022-10-08T18:04:32.422Z,15.00
2022-10-08T18:07:18.021Z,14.80
2022-10-08T18:10:05.959Z,14.70
2022-10-08T18:12:51.876Z,14.70
2022-10-08T18:15:37.530Z,14.60
2022-10-08T18:18:23.257Z,14.40
2022-10-08T18:21:10.900Z,14.40
2022-10-08T18:23:58.719Z,14.40
2022-10-08T18:26:44.517Z,14.30
2022-10-08T18:29:30.556Z,14.20
2022-10-08T18:32:16.388Z,14.00
2022-10-08T18:35:01.910Z,14.00
2022-10-08T18:37:47.860Z,14.00
2022-10-08T18:40:33.157Z,14.00
2022-10-08T18:43:18.612Z,14.00
2022-10-08T18:46:04.775Z,13.90
2022-10-08T18:48:50.803Z,13.90
2022-10-08T18:51:36.580Z,13.90
2022-10-08T18:54:22.180Z,13.90
2022-10-08T18:57:07.912Z,14.00
2022-10-08T18:59:53.526Z,14.10
2022-10-08T19:02:39.215Z,14.10
2022-10-08T19:05:24.985Z,14.10
2022-10-08T19:08:10.484Z,14.10
2022-10-08T19:10:58.586Z,14.00
2022-10-08T19:13:44.643Z,14.00
2022-10-08T19:16:30.721Z,14.00
2022-10-08T19:19:19.553Z,14.00
2022-10-08T19:22:05.182Z,13.90
2022-10-08T19:24:50.798Z,13.80
2022-10-08T19:27:36.727Z,13.80
2022-10-08T19:30:26.580Z,13.60
2022-10-08T19:33:14.403Z,13.50
2022-10-08T19:36:00.928Z,13.30
2022-10-08T19:39:00.744Z,13.20
2022-10-08T19:41:47.122Z,13.10
2022-10-08T19:44:33.104Z,13.00
2022-10-08T19:47:20.622Z,13.00
2022-10-08T19:50:06.835Z,12.90
2022-10-08T19:52:52.271Z,12.90
2022-10-08T19:55:38.315Z,12.80
2022-10-08T19:58:24.007Z,12.90
2022-10-08T20:01:15.572Z,12.80
2022-10-08T20:04:04.448Z,12.70
2022-10-08T20:06:50.750Z,12.70
2022-10-08T20:09:36.350Z,12.60
2022-10-08T20:12:22.147Z,12.60
2022-10-08T20:15:09.997Z,12.60
2022-10-08T20:17:55.921Z,12.50
2022-10-08T20:20:41.537Z,12.50
2022-10-08T20:23:27.449Z,12.50
2022-10-08T20:26:22.478Z,12.40
2022-10-08T20:29:20.160Z,12.40
2022-10-08T20:32:06.360Z,12.30
2022-10-08T20:34:51.850Z,12.30
2022-10-08T20:37:37.435Z,12.30
2022-10-08T20:40:23.128Z,12.30
2022-10-08T20:43:08.948Z,12.20
2022-10-08T20:45:54.915Z,12.20
2022-10-08T20:48:42.225Z,12.10
2022-10-08T20:51:29.060Z,12.10
2022-10-08T20:54:16.410Z,12.10
2022-10-08T20:57:01.862Z,12.10
2022-10-08T20:59:48.112Z,12.10
2022-10-08T21:02:33.939Z,12.10
2022-10-08T21:05:19.598Z,12.10
2022-10-08T21:08:07.185Z,12.10
2022-10-08T21:10:53.465Z,12.10
2022-10-08T21:13:39.339Z,12.10
2022-10-08T21:16:27.797Z,12.10
2022-10-08T21:19:18.135Z,12.10
2022-10-08T21:22:03.782Z,12.00
2022-10-08T21:24:49.579Z,12.00
2022-10-08T21:27:35.086Z,12.00
2022-10-08T21:30:20.693Z,12.10
2022-10-08T21:33:06.303Z,12.10
2022-10-08T21:35:54.866Z,12.10
2022-10-08T21:38:40.468Z,12.10
2022-10-08T21:41:30.131Z,12.00
2022-10-08T21:44:15.777Z,12.00
2022-10-08T21:47:01.329Z,12.00
2022-10-08T21:49:47.173Z,11.90
2022-10-08T21:52:32.597Z,12.00
2022-10-08T21:55:18.021Z,11.90
2022-10-08T21:58:03.815Z,11.90
2022-10-08T22:00:49.382Z,11.80
2022-10-08T22:03:35.337Z,11.80
2022-10-08T22:06:21.489Z,11.80
2022-10-08T22:09:10.671Z,11.80
2022-10-08T22:11:57.821Z,11.80
2022-10-08T22:14:43.465Z,11.70
2022-10-08T22:17:29.081Z,11.70
2022-10-08T22:20:14.683Z,11.70
2022-10-08T22:23:00.362Z,11.70
2022-10-08T22:26:00.794Z,11.60
2022-10-08T22:28:46.219Z,11.60
2022-10-08T22:31:32.412Z,11.60
2022-10-08T22:34:17.988Z,11.50
2022-10-08T22:37:03.636Z,11.50
2022-10-08T22:39:49.122Z,11.50
2022-10-08T22:42:35.060Z,11.50
2022-10-08T22:45:20.974Z,11.50
2022-10-08T22:48:06.878Z,11.50
2022-10-08T22:50:52.440Z,11.50
2022-10-08T22:53:38.127Z,11.60
2022-10-08T22:56:29.738Z,11.60
2022-10-08T22:59:15.558Z,11.50
2022-10-08T23:02:02.966Z,11.50
2022-10-08T23:04:48.905Z,11.50
2022-10-08T23:07:34.255Z,11.50
2022-10-08T23:10:19.791Z,11.50
2022-10-08T23:13:05.524Z,11.50
2022-10-08T23:16:02.747Z,11.40
2022-10-08T23:18:57.132Z,11.40
2022-10-08T23:21:44.426Z,11.30
2022-10-08T23:24:29.960Z,11.20
2022-10-08T23:27:15.345Z,11.10
2022-10-08T23:30:01.858Z,11.10
2022-10-08T23:32:47.552Z,11.00
2022-10-08T23:35:33.281Z,11.10
2022-10-08T23:38:19.020Z,11.10
2022-10-08T23:41:06.916Z,11.20
2022-10-08T23:43:53.348Z,11.20
2022-10-08T23:46:38.828Z,11.30
2022-10-08T23:49:24.416Z,11.30
2022-10-08T23:52:10.073Z,11.30
2022-10-08T23:54:55.689Z,11.40
2022-10-08T23:57:41.245Z,11.50
